createdAt,value
2023-05-15T00:00:19.643Z,1090.00
2023-05-15T00:01:19.589Z,1099.00
2023-05-15T00:02:19.693Z,1086.00
2023-05-15T00:03:19.710Z,1096.00
2023-05-15T00:04:19.627Z,1084.00
2023-05-15T00:05:19.564Z,1079.00
2023-05-15T00:06:19.570Z,1092.00
2023-05-15T00:07:19.592Z,1068.00
2023-05-15T00:08:19.543Z,1088.00
2023-05-15T00:09:19.599Z,1093.00
2023-05-15T00:10:19.551Z,1099.00
2023-05-15T00:11:19.532Z,1088.00
2023-05-15T00:12:19.549Z,1081.00
2023-05-15T00:13:19.506Z,1096.00
2023-05-15T00:14:19.511Z,1090.00
2023-05-15T00:15:19.541Z,1090.00
2023-05-15T00:16:19.627Z,1090.00
2023-05-15T00:17:19.477Z,1082.00
2023-05-15T00:18:19.505Z,1082.00
2023-05-15T00:19:19.584Z,1082.00
2023-05-15T00:20:19.486Z,1075.00
2023-05-15T00:21:19.487Z,1069.00
2023-05-15T00:22:19.468Z,1048.00
2023-05-15T00:23:19.475Z,1040.00
2023-05-15T00:24:19.462Z,1009.00
2023-05-15T00:25:19.503Z,1022.00
2023-05-15T00:26:19.441Z,1031.00
2023-05-15T00:27:19.425Z,1037.00
2023-05-15T00:28:19.504Z,1047.00
2023-05-15T00:29:19.497Z,1043.00
2023-05-15T00:30:19.523Z,1048.00
2023-05-15T00:31:19.598Z,1047.00
2023-05-15T00:32:19.572Z,1054.00
2023-05-15T00:33:19.738Z,1032.00
2023-05-15T00:34:19.585Z,1027.00
2023-05-15T00:35:19.656Z,1034.00
2023-05-15T00:36:19.645Z,1024.00
2023-05-15T00:37:19.691Z,1023.00
2023-05-15T00:38:19.700Z,1010.00
2023-05-15T00:39:19.746Z,1002.00
2023-05-15T00:40:19.733Z,1005.00
2023-05-15T00:41:19.766Z,1005.00
2023-05-15T00:42:19.796Z,1022.00
2023-05-15T00:43:19.849Z,1026.00
2023-05-15T00:44:19.837Z,1019.00
2023-05-15T00:45:19.865Z,1013.00
2023-05-15T00:46:19.897Z,1021.00
2023-05-15T00:47:19.983Z,1022.00
2023-05-15T00:48:19.940Z,1032.00
2023-05-15T00:49:19.901Z,1012.00
2023-05-15T00:50:19.983Z,1022.00
2023-05-15T00:51:20.103Z,1015.00
2023-05-15T00:52:19.994Z,1024.00
2023-05-15T00:53:20.018Z,1028.00
2023-05-15T00:54:20.132Z,1026.00
2023-05-15T00:55:20.068Z,1015.00
2023-05-15T00:56:20.075Z,1015.00
2023-05-15T00:57:20.125Z,1025.00
2023-05-15T00:58:20.142Z,1030.00
2023-05-15T00:59:20.164Z,1033.00
2023-05-15T01:00:20.167Z,1040.00
2023-05-15T01:01:20.260Z,1030.00
2023-05-15T01:02:20.240Z,1027.00
2023-05-15T01:03:20.356Z,1019.00
2023-05-15T01:04:20.224Z,1020.00
2023-05-15T01:05:20.253Z,1022.00
2023-05-15T01:06:20.301Z,1041.00
2023-05-15T01:07:20.352Z,1031.00
2023-05-15T01:08:20.322Z,1046.00
2023-05-15T01:09:20.325Z,1044.00
2023-05-15T01:10:20.401Z,1034.00
2023-05-15T01:11:20.385Z,1030.00
2023-05-15T01:12:20.459Z,1033.00
2023-05-15T01:13:20.442Z,1035.00
2023-05-15T01:14:20.476Z,1025.00
2023-05-15T01:15:20.482Z,1018.00
2023-05-15T01:16:20.481Z,1022.00
2023-05-15T01:17:20.520Z,1024.00
2023-05-15T01:18:20.665Z,1038.00
2023-05-15T01:19:20.668Z,1037.00
2023-05-15T01:20:20.644Z,1035.00
2023-05-15T01:21:20.634Z,1036.00
2023-05-15T01:22:20.639Z,1041.00
2023-05-15T01:23:20.670Z,1026.00
2023-05-15T01:24:20.708Z,1038.00
2023-05-15T01:25:20.734Z,1046.00
2023-05-15T01:26:20.717Z,1022.00
2023-05-15T01:27:20.765Z,1032.00
2023-05-15T01:28:20.771Z,1015.00
2023-05-15T01:29:20.773Z,1015.00
2023-05-15T01:30:20.835Z,1040.00
2023-05-15T01:31:20.862Z,1031.00
2023-05-15T01:32:20.917Z,1042.00
2023-05-15T01:33:20.970Z,980.00
2023-05-15T01:34:20.945Z,984.00
2023-05-15T01:35:20.971Z,994.00
2023-05-15T01:36:21.040Z,1000.00
2023-05-15T01:37:21.043Z,946.00
2023-05-15T01:38:21.095Z,974.00
2023-05-15T01:39:21.157Z,983.00
2023-05-15T01:40:21.159Z,998.00
2023-05-15T01:41:21.218Z,995.00
2023-05-15T01:42:21.229Z,993.00
2023-05-15T01:43:21.285Z,999.00
2023-05-15T01:44:21.334Z,1002.00
2023-05-15T01:45:21.343Z,1006.00
2023-05-15T01:46:21.445Z,999.00
2023-05-15T01:47:21.452Z,1002.00
2023-05-15T01:48:21.454Z,992.00
2023-05-15T01:49:21.488Z,988.00
2023-05-15T01:50:21.533Z,994.00
2023-05-15T01:51:21.600Z,974.00
2023-05-15T01:52:21.573Z,977.00
2023-05-15T01:53:21.618Z,973.00
2023-05-15T01:54:21.657Z,953.00
2023-05-15T01:55:21.709Z,925.00
2023-05-15T01:56:21.728Z,945.00
2023-05-15T01:57:21.783Z,940.00
2023-05-15T01:58:21.812Z,955.00
2023-05-15T01:59:21.868Z,979.00
2023-05-15T02:00:21.920Z,976.00
2023-05-15T02:01:22.010Z,983.00
2023-05-15T02:02:22.077Z,999.00
2023-05-15T02:03:22.162Z,995.00
2023-05-15T02:04:22.058Z,995.00
2023-05-15T02:05:22.145Z,1001.00
2023-05-15T02:06:22.104Z,979.00
2023-05-15T02:07:22.168Z,979.00
2023-05-15T02:08:22.186Z,982.00
2023-05-15T02:09:22.224Z,985.00
2023-05-15T02:10:22.281Z,973.00
2023-05-15T02:11:22.319Z,975.00
2023-05-15T02:12:22.382Z,977.00
2023-05-15T02:13:22.409Z,991.00
2023-05-15T02:14:22.456Z,993.00
2023-05-15T02:15:22.517Z,987.00
2023-05-15T02:16:22.560Z,993.00
2023-05-15T02:17:22.609Z,988.00
2023-05-15T02:18:22.597Z,990.00
2023-05-15T02:19:22.651Z,993.00
2023-05-15T02:20:22.652Z,979.00
2023-05-15T02:21:22.683Z,992.00
2023-05-15T02:22:22.838Z,996.00
2023-05-15T02:23:22.772Z,995.00
2023-05-15T02:24:22.798Z,1002.00
2023-05-15T02:25:22.946Z,992.00
2023-05-15T02:26:22.828Z,1000.00
2023-05-15T02:27:22.833Z,1001.00
2023-05-15T02:28:22.862Z,1007.00
2023-05-15T02:29:22.876Z,1019.00
2023-05-15T02:30:22.894Z,997.00
2023-05-15T02:31:24.504Z,1004.00
2023-05-15T02:32:22.983Z,1004.00
2023-05-15T02:33:23.005Z,1014.00
2023-05-15T02:34:23.020Z,1017.00
2023-05-15T02:35:23.214Z,1014.00
2023-05-15T02:36:23.131Z,1013.00
2023-05-15T02:37:23.184Z,1024.00
2023-05-15T02:38:23.188Z,1018.00
2023-05-15T02:39:23.238Z,1020.00
2023-05-15T02:40:23.256Z,1027.00
2023-05-15T02:41:23.258Z,1021.00
2023-05-15T02:42:23.447Z,1028.00
2023-05-15T02:43:23.363Z,1022.00
2023-05-15T02:44:23.409Z,1016.00
2023-05-15T02:45:23.626Z,1022.00
2023-05-15T02:46:23.535Z,1012.00
2023-05-15T02:47:23.612Z,1024.00
2023-05-15T02:48:23.557Z,1004.00
2023-05-15T02:49:23.593Z,1018.00
2023-05-15T02:50:23.592Z,1013.00
2023-05-15T02:51:23.636Z,981.00
2023-05-15T02:52:23.687Z,986.00
2023-05-15T02:53:23.763Z,979.00
2023-05-15T02:54:23.797Z,968.00
2023-05-15T02:55:24.079Z,939.00
2023-05-15T02:56:23.851Z,863.00
2023-05-15T02:57:23.924Z,890.00
2023-05-15T02:58:23.934Z,826.00
2023-05-15T02:59:24.015Z,824.00
2023-05-15T03:00:24.057Z,847.00
2023-05-15T03:01:24.174Z,852.00
2023-05-15T03:02:24.208Z,875.00
2023-05-15T03:03:24.270Z,894.00
2023-05-15T03:04:24.331Z,864.00
2023-05-15T03:05:24.614Z,865.00
2023-05-15T03:06:24.414Z,884.00
2023-05-15T03:07:24.428Z,909.00
2023-05-15T03:08:24.524Z,893.00
2023-05-15T03:09:24.550Z,897.00
2023-05-15T03:10:24.631Z,910.00
2023-05-15T03:11:24.656Z,908.00
2023-05-15T03:12:24.762Z,919.00
2023-05-15T03:13:24.809Z,925.00
2023-05-15T03:14:24.873Z,924.00
2023-05-15T03:15:25.074Z,907.00
2023-05-15T03:16:25.072Z,895.00
2023-05-15T03:17:25.027Z,904.00
2023-05-15T03:18:25.061Z,909.00
2023-05-15T03:19:25.102Z,892.00
2023-05-15T03:20:25.132Z,901.00
2023-05-15T03:21:25.194Z,903.00
2023-05-15T03:22:25.285Z,909.00
2023-05-15T03:23:25.328Z,926.00
2023-05-15T03:24:25.344Z,938.00
2023-05-15T03:25:25.575Z,961.00
2023-05-15T03:26:25.458Z,940.00
2023-05-15T03:27:25.457Z,951.00
2023-05-15T03:28:25.606Z,957.00
2023-05-15T03:29:25.532Z,968.00
2023-05-15T03:30:25.606Z,973.00
2023-05-15T03:31:25.713Z,970.00
2023-05-15T03:32:25.825Z,971.00
2023-05-15T03:33:25.720Z,972.00
2023-05-15T03:34:25.780Z,988.00
2023-05-15T03:35:26.068Z,985.00
2023-05-15T03:36:25.858Z,990.00
2023-05-15T03:37:25.904Z,992.00
2023-05-15T03:38:25.956Z,986.00
2023-05-15T03:39:26.001Z,1010.00
2023-05-15T03:40:26.033Z,1001.00
2023-05-15T03:41:26.082Z,1008.00
2023-05-15T03:42:26.121Z,1006.00
2023-05-15T03:43:26.200Z,1021.00
2023-05-15T03:44:26.198Z,1021.00
2023-05-15T03:45:26.430Z,1018.00
2023-05-15T03:46:26.343Z,1021.00
2023-05-15T03:47:26.384Z,1030.00
2023-05-15T03:48:26.382Z,1026.00
2023-05-15T03:49:26.435Z,1025.00
2023-05-15T03:50:26.471Z,1028.00
2023-05-15T03:51:26.506Z,1037.00
2023-05-15T03:52:26.571Z,1043.00
2023-05-15T03:53:26.641Z,1037.00
2023-05-15T03:54:26.670Z,1029.00
2023-05-15T03:55:26.949Z,1047.00
2023-05-15T03:56:26.705Z,1035.00
2023-05-15T03:57:26.816Z,1039.00
2023-05-15T03:58:26.798Z,1033.00
2023-05-15T03:59:26.876Z,1039.00
2023-05-15T04:00:27.153Z,993.00
2023-05-15T04:01:27.112Z,951.00
2023-05-15T04:02:27.086Z,984.00
2023-05-15T04:03:27.181Z,893.00
2023-05-15T04:04:27.055Z,832.00
2023-05-15T04:05:27.491Z,779.00
2023-05-15T04:06:27.135Z,728.00
2023-05-15T04:07:27.186Z,668.00
2023-05-15T04:08:27.185Z,637.00
2023-05-15T04:09:27.181Z,620.00
2023-05-15T04:10:27.319Z,596.00
2023-05-15T04:11:27.268Z,582.00
2023-05-15T04:12:27.266Z,562.00
2023-05-15T04:13:27.276Z,544.00
2023-05-15T04:14:27.299Z,545.00
2023-05-15T04:15:27.521Z,544.00
2023-05-15T04:16:27.360Z,534.00
2023-05-15T04:17:27.465Z,527.00
2023-05-15T04:18:27.432Z,506.00
2023-05-15T04:19:27.464Z,510.00
2023-05-15T04:20:27.472Z,514.00
2023-05-15T04:21:27.501Z,506.00
2023-05-15T04:22:27.505Z,523.00
2023-05-15T04:23:27.569Z,513.00
2023-05-15T04:24:27.549Z,528.00
2023-05-15T04:25:27.720Z,500.00
2023-05-15T04:26:27.615Z,500.00
2023-05-15T04:27:27.657Z,504.00
2023-05-15T04:28:28.665Z,512.00
2023-05-15T04:29:27.719Z,512.00
2023-05-15T04:30:27.734Z,516.00
2023-05-15T04:31:27.778Z,542.00
2023-05-15T04:32:27.896Z,563.00
2023-05-15T04:33:27.937Z,577.00
2023-05-15T04:34:27.988Z,589.00
2023-05-15T04:35:28.134Z,601.00
2023-05-15T04:36:28.097Z,605.00
2023-05-15T04:37:28.122Z,614.00
2023-05-15T04:38:28.221Z,615.00
2023-05-15T04:39:28.281Z,628.00
2023-05-15T04:40:28.332Z,615.00
2023-05-15T04:41:28.379Z,603.00
2023-05-15T04:42:28.398Z,614.00
2023-05-15T04:43:28.511Z,631.00
2023-05-15T04:44:28.546Z,645.00
2023-05-15T04:45:28.591Z,659.00
2023-05-15T04:46:28.700Z,684.00
2023-05-15T04:47:28.766Z,695.00
2023-05-15T04:48:28.792Z,696.00
2023-05-15T04:49:28.797Z,700.00
2023-05-15T04:50:28.868Z,730.00
2023-05-15T04:51:28.909Z,744.00
2023-05-15T04:52:28.969Z,754.00
2023-05-15T04:53:29.015Z,771.00
2023-05-15T04:54:29.076Z,770.00
2023-05-15T04:55:29.631Z,796.00
2023-05-15T04:56:29.165Z,812.00
2023-05-15T04:57:29.206Z,823.00
2023-05-15T04:58:29.283Z,830.00
2023-05-15T04:59:29.311Z,845.00
2023-05-15T05:00:29.377Z,858.00
2023-05-15T05:01:29.415Z,866.00
2023-05-15T05:02:29.560Z,788.00
2023-05-15T05:03:29.582Z,749.00
2023-05-15T05:04:29.647Z,730.00
2023-05-15T05:05:29.675Z,703.00
2023-05-15T05:06:30.517Z,733.00
2023-05-15T05:07:29.743Z,697.00
2023-05-15T05:08:29.794Z,664.00
2023-05-15T05:09:29.770Z,654.00
2023-05-15T05:10:29.811Z,664.00
2023-05-15T05:11:29.812Z,674.00
2023-05-15T05:12:29.846Z,651.00
2023-05-15T05:13:29.855Z,648.00
2023-05-15T05:14:29.846Z,651.00
2023-05-15T05:15:29.882Z,662.00
2023-05-15T05:16:30.021Z,656.00
2023-05-15T05:17:29.971Z,610.00
2023-05-15T05:18:29.994Z,606.00
2023-05-15T05:19:30.029Z,573.00
2023-05-15T05:20:30.078Z,556.00
2023-05-15T05:21:30.147Z,570.00
2023-05-15T05:22:30.214Z,584.00
2023-05-15T05:23:30.268Z,600.00
2023-05-15T05:24:30.289Z,613.00
2023-05-15T05:25:30.324Z,625.00
2023-05-15T05:26:30.438Z,637.00
2023-05-15T05:27:30.360Z,651.00
2023-05-15T05:28:30.396Z,659.00
2023-05-15T05:29:30.434Z,678.00
2023-05-15T05:30:30.414Z,672.00
2023-05-15T05:31:30.473Z,685.00
2023-05-15T05:32:30.458Z,636.00
2023-05-15T05:33:31.000Z,599.00
2023-05-15T05:34:30.481Z,601.00
2023-05-15T05:35:30.552Z,610.00
2023-05-15T05:36:30.584Z,603.00
2023-05-15T05:37:30.528Z,600.00
2023-05-15T05:38:30.520Z,605.00
2023-05-15T05:39:30.529Z,620.00
2023-05-15T05:40:30.571Z,635.00
2023-05-15T05:41:30.522Z,649.00
2023-05-15T05:42:30.544Z,644.00
2023-05-15T05:43:30.598Z,629.00
2023-05-15T05:44:30.601Z,599.00
2023-05-15T05:45:30.675Z,603.00
2023-05-15T05:46:30.730Z,560.00
2023-05-15T05:47:30.760Z,570.00
2023-05-15T05:48:31.008Z,573.00
2023-05-15T05:49:30.754Z,552.00
2023-05-15T05:50:30.752Z,545.00
2023-05-15T05:51:30.813Z,562.00
2023-05-15T05:52:30.823Z,585.00
2023-05-15T05:53:30.813Z,584.00
2023-05-15T05:54:30.886Z,582.00
2023-05-15T05:55:30.962Z,574.00
2023-05-15T05:56:30.990Z,563.00
2023-05-15T05:57:30.939Z,570.00
2023-05-15T05:58:30.969Z,565.00
2023-05-15T05:59:30.993Z,571.00
2023-05-15T06:00:31.032Z,575.00
2023-05-15T06:01:31.509Z,579.00
2023-05-15T06:02:31.227Z,584.00
2023-05-15T06:03:31.322Z,593.00
2023-05-15T06:04:31.322Z,597.00
2023-05-15T06:05:31.321Z,604.00
2023-05-15T06:06:31.363Z,607.00
2023-05-15T06:07:31.384Z,613.00
2023-05-15T06:08:31.430Z,618.00
2023-05-15T06:09:31.438Z,621.00
2023-05-15T06:10:31.503Z,623.00
2023-05-15T06:11:31.567Z,626.00
2023-05-15T06:12:31.618Z,626.00
2023-05-15T06:13:31.667Z,624.00
2023-05-15T06:14:31.692Z,633.00
2023-05-15T06:15:31.742Z,627.00
2023-05-15T06:16:31.766Z,627.00
2023-05-15T06:17:31.991Z,625.00
2023-05-15T06:18:31.849Z,624.00
2023-05-15T06:19:31.820Z,624.00
2023-05-15T06:20:31.841Z,631.00
2023-05-15T06:21:31.885Z,633.00
2023-05-15T06:22:31.990Z,638.00
2023-05-15T06:23:31.898Z,644.00
2023-05-15T06:24:32.016Z,651.00
2023-05-15T06:25:31.925Z,660.00
2023-05-15T06:26:31.969Z,654.00
2023-05-15T06:27:31.980Z,650.00
2023-05-15T06:28:31.976Z,648.00
2023-05-15T06:29:31.985Z,647.00
2023-05-15T06:30:32.077Z,645.00
2023-05-15T06:31:32.610Z,632.00
2023-05-15T06:32:34.351Z,630.00
2023-05-15T06:33:32.146Z,621.00
2023-05-15T06:34:32.178Z,621.00
2023-05-15T06:35:32.180Z,613.00
2023-05-15T06:36:32.188Z,623.00
2023-05-15T06:37:32.502Z,640.00
2023-05-15T06:38:32.523Z,650.00
2023-05-15T06:39:32.263Z,674.00
2023-05-15T06:40:32.233Z,690.00
2023-05-15T06:41:32.222Z,748.00
2023-05-15T06:42:32.229Z,748.00
2023-05-15T06:43:32.491Z,714.00
2023-05-15T06:44:32.272Z,676.00
2023-05-15T06:45:32.253Z,665.00
2023-05-15T06:46:32.291Z,656.00
2023-05-15T06:47:32.294Z,662.00
2023-05-15T06:48:32.482Z,654.00
2023-05-15T06:49:32.287Z,653.00
2023-05-15T06:50:32.269Z,659.00
2023-05-15T06:51:32.315Z,658.00
2023-05-15T06:52:32.270Z,655.00
2023-05-15T06:53:32.312Z,657.00
2023-05-15T06:54:32.356Z,654.00
2023-05-15T06:55:32.405Z,663.00
2023-05-15T06:56:32.389Z,656.00
2023-05-15T06:57:32.483Z,654.00
2023-05-15T06:58:32.392Z,647.00
2023-05-15T06:59:32.577Z,654.00
2023-05-15T07:00:32.511Z,646.00
2023-05-15T07:01:33.018Z,644.00
2023-05-15T07:02:32.644Z,649.00
2023-05-15T07:03:32.665Z,647.00
2023-05-15T07:04:32.805Z,644.00
2023-05-15T07:05:32.795Z,643.00
2023-05-15T07:06:32.882Z,642.00
2023-05-15T07:07:32.911Z,629.00
2023-05-15T07:08:32.973Z,631.00
2023-05-15T07:09:33.082Z,629.00
2023-05-15T07:10:33.053Z,633.00
2023-05-15T07:11:33.095Z,625.00
2023-05-15T07:12:33.186Z,633.00
2023-05-15T07:13:33.464Z,629.00
2023-05-15T07:14:33.224Z,619.00
2023-05-15T07:15:33.401Z,623.00
2023-05-15T07:16:33.331Z,625.00
2023-05-15T07:17:33.453Z,611.00
2023-05-15T07:18:33.600Z,612.00
2023-05-15T07:19:33.467Z,608.00
2023-05-15T07:20:35.011Z,599.00
2023-05-15T07:21:33.477Z,602.00
2023-05-15T07:22:38.523Z,594.00
2023-05-15T07:23:34.512Z,594.00
2023-05-15T07:24:33.493Z,592.00
2023-05-15T07:25:33.507Z,588.00
2023-05-15T07:26:40.835Z,594.00
2023-05-15T07:27:34.488Z,594.00
2023-05-15T07:28:33.451Z,594.00
2023-05-15T07:29:33.476Z,590.00
2023-05-15T07:30:33.442Z,595.00
2023-05-15T07:31:33.582Z,599.00
2023-05-15T07:32:33.665Z,611.00
2023-05-15T07:33:33.481Z,637.00
2023-05-15T07:34:34.034Z,641.00
2023-05-15T07:35:33.412Z,650.00
2023-05-15T07:36:33.413Z,663.00
2023-05-15T07:37:33.433Z,687.00
2023-05-15T07:38:33.383Z,717.00
2023-05-15T07:39:33.456Z,742.00
2023-05-15T07:40:33.423Z,725.00
2023-05-15T07:41:33.412Z,740.00
2023-05-15T07:42:33.364Z,744.00
2023-05-15T07:43:33.368Z,747.00
2023-05-15T07:44:33.375Z,761.00
2023-05-15T07:45:33.421Z,754.00
2023-05-15T07:46:33.431Z,785.00
2023-05-15T07:47:33.375Z,792.00
2023-05-15T07:48:33.365Z,788.00
2023-05-15T07:49:33.362Z,788.00
2023-05-15T07:50:33.337Z,803.00
2023-05-15T07:51:33.308Z,802.00
2023-05-15T07:52:33.346Z,808.00
2023-05-15T07:53:33.360Z,805.00
2023-05-15T07:54:33.291Z,800.00
2023-05-15T07:55:33.282Z,781.00
2023-05-15T07:56:33.256Z,807.00
2023-05-15T07:57:33.307Z,815.00
2023-05-15T07:58:33.323Z,819.00
2023-05-15T07:59:33.304Z,822.00
2023-05-15T08:00:33.248Z,815.00
2023-05-15T08:01:33.286Z,850.00
2023-05-15T08:02:33.338Z,870.00
2023-05-15T08:03:33.492Z,871.00
2023-05-15T08:04:33.382Z,887.00
2023-05-15T08:05:33.324Z,903.00
2023-05-15T08:06:33.327Z,906.00
2023-05-15T08:07:33.375Z,901.00
2023-05-15T08:08:33.375Z,904.00
2023-05-15T08:09:33.423Z,918.00
2023-05-15T08:10:33.497Z,942.00
2023-05-15T08:11:33.963Z,928.00
2023-05-15T08:12:33.637Z,952.00
2023-05-15T08:13:33.651Z,954.00
2023-05-15T08:14:33.734Z,970.00
2023-05-15T08:15:33.755Z,963.00
2023-05-15T08:16:33.833Z,961.00
2023-05-15T08:17:33.872Z,941.00
2023-05-15T08:18:33.932Z,942.00
2023-05-15T08:19:34.138Z,941.00
2023-05-15T08:20:33.998Z,948.00
2023-05-15T08:21:34.065Z,908.00
2023-05-15T08:22:34.148Z,916.00
2023-05-15T08:23:34.186Z,908.00
2023-05-15T08:24:34.254Z,930.00
2023-05-15T08:25:34.318Z,940.00
2023-05-15T08:26:34.392Z,770.00
2023-05-15T08:27:34.431Z,554.00
2023-05-15T08:28:35.003Z,456.00
2023-05-15T08:29:34.502Z,430.00
2023-05-15T08:30:34.506Z,455.00
2023-05-15T08:31:35.021Z,541.00
2023-05-15T08:32:34.551Z,572.00
2023-05-15T08:33:34.543Z,604.00
2023-05-15T08:34:34.636Z,609.00
2023-05-15T08:35:34.585Z,652.00
2023-05-15T08:36:34.959Z,649.00
2023-05-15T08:37:34.951Z,606.00
2023-05-15T08:38:34.653Z,557.00
2023-05-15T08:39:34.692Z,594.00
2023-05-15T08:40:39.586Z,613.00
2023-05-15T08:42:34.687Z,572.00
2023-05-15T08:43:34.739Z,559.00
2023-05-15T08:44:35.000Z,559.00
2023-05-15T08:45:34.711Z,562.00
2023-05-15T08:46:34.751Z,581.00
2023-05-15T08:47:34.724Z,587.00
2023-05-15T08:48:34.782Z,619.00
2023-05-15T08:49:34.672Z,631.00
2023-05-15T08:50:34.711Z,644.00
2023-05-15T08:51:34.664Z,647.00
2023-05-15T08:52:34.648Z,662.00
2023-05-15T08:53:34.655Z,680.00
2023-05-15T08:54:34.613Z,721.00
2023-05-15T08:55:34.935Z,754.00
2023-05-15T08:56:34.963Z,759.00
2023-05-15T08:57:34.657Z,789.00
2023-05-15T08:58:34.637Z,800.00
2023-05-15T08:59:34.625Z,837.00
2023-05-15T09:00:34.592Z,879.00
2023-05-15T09:01:34.611Z,893.00
2023-05-15T09:02:34.581Z,923.00
2023-05-15T09:03:34.659Z,969.00
2023-05-15T09:04:34.551Z,999.00
2023-05-15T09:05:34.634Z,1023.00
2023-05-15T09:06:34.606Z,1057.00
2023-05-15T09:07:34.553Z,1094.00
2023-05-15T09:08:34.564Z,1104.00
2023-05-15T09:09:34.926Z,1150.00
2023-05-15T09:10:34.526Z,1142.00
2023-05-15T09:11:34.944Z,1142.00
2023-05-15T09:12:34.490Z,1153.00
2023-05-15T09:13:34.498Z,1158.00
2023-05-15T09:14:34.504Z,1215.00
2023-05-15T09:15:34.482Z,1228.00
2023-05-15T09:16:34.519Z,1240.00
2023-05-15T09:17:34.500Z,1266.00
2023-05-15T09:18:34.476Z,1251.00
2023-05-15T09:19:34.434Z,1267.00
2023-05-15T09:20:34.473Z,1273.00
2023-05-15T09:21:34.482Z,1276.00
2023-05-15T09:22:34.459Z,1262.00
2023-05-15T09:23:34.487Z,1268.00
2023-05-15T09:24:34.480Z,1275.00
2023-05-15T09:25:34.442Z,1293.00
2023-05-15T09:26:34.431Z,1310.00
2023-05-15T09:27:34.437Z,1325.00
2023-05-15T09:28:34.449Z,1322.00
2023-05-15T09:29:34.382Z,1354.00
2023-05-15T09:30:34.409Z,1391.00
2023-05-15T09:31:34.467Z,1379.00
2023-05-15T09:32:34.468Z,1397.00
2023-05-15T09:33:34.453Z,1469.00
2023-05-15T09:34:34.446Z,1463.00
2023-05-15T09:35:34.401Z,1463.00
2023-05-15T09:36:34.450Z,1447.00
2023-05-15T09:37:34.478Z,1402.00
2023-05-15T09:38:34.448Z,1330.00
2023-05-15T09:39:34.436Z,1193.00
2023-05-15T09:40:34.535Z,1129.00
2023-05-15T09:41:34.949Z,1092.00
2023-05-15T09:42:34.546Z,1065.00
2023-05-15T09:43:34.507Z,1054.00
2023-05-15T09:44:34.918Z,1043.00
2023-05-15T09:45:34.552Z,1074.00
2023-05-15T09:46:34.685Z,1100.00
2023-05-15T09:47:34.844Z,1116.00
2023-05-15T09:48:34.672Z,1126.00
2023-05-15T09:49:34.934Z,1129.00
2023-05-15T09:50:34.579Z,1141.00
2023-05-15T09:51:34.535Z,1160.00
2023-05-15T09:52:34.576Z,1164.00
2023-05-15T09:53:34.567Z,1184.00
2023-05-15T09:54:34.615Z,1191.00
2023-05-15T09:55:34.653Z,1189.00
2023-05-15T09:56:34.694Z,1192.00
2023-05-15T09:57:34.705Z,1203.00
2023-05-15T09:58:34.757Z,1207.00
2023-05-15T09:59:34.785Z,1217.00
2023-05-15T10:00:34.784Z,1216.00
2023-05-15T10:01:34.924Z,1252.00
2023-05-15T10:02:34.983Z,1249.00
2023-05-15T10:03:34.847Z,1239.00
2023-05-15T10:04:34.787Z,1265.00
2023-05-15T10:05:42.987Z,1268.00
2023-05-15T10:06:35.807Z,1269.00
2023-05-15T10:07:34.807Z,1264.00
2023-05-15T10:08:34.774Z,1269.00
2023-05-15T10:09:34.790Z,1262.00
2023-05-15T10:10:34.783Z,1265.00
2023-05-15T10:11:34.791Z,1287.00
2023-05-15T10:12:34.945Z,1282.00
2023-05-15T10:13:34.908Z,1272.00
2023-05-15T10:14:34.768Z,1253.00
2023-05-15T10:15:34.827Z,1229.00
2023-05-15T10:16:34.944Z,1242.00
2023-05-15T10:17:34.966Z,1258.00
2023-05-15T10:18:35.042Z,1244.00
2023-05-15T10:19:39.448Z,1233.00
2023-05-15T10:20:36.015Z,1235.00
2023-05-15T10:21:34.979Z,1247.00
2023-05-15T10:22:34.941Z,1260.00
2023-05-15T10:23:34.947Z,1276.00
2023-05-15T10:24:34.942Z,1324.00
2023-05-15T10:25:34.964Z,1307.00
2023-05-15T10:26:34.933Z,1374.00
2023-05-15T10:27:34.953Z,1322.00
2023-05-15T10:28:34.896Z,1345.00
2023-05-15T10:29:34.959Z,1231.00
2023-05-15T10:30:34.910Z,1234.00
2023-05-15T10:31:34.881Z,1204.00
2023-05-15T10:32:34.926Z,1073.00
2023-05-15T10:33:34.886Z,1042.00
2023-05-15T10:34:34.921Z,939.00
2023-05-15T10:35:34.881Z,890.00
2023-05-15T10:36:35.082Z,937.00
2023-05-15T10:37:34.872Z,978.00
2023-05-15T10:38:34.885Z,1017.00
2023-05-15T10:39:34.926Z,992.00
2023-05-15T10:40:34.955Z,958.00
2023-05-15T10:41:34.966Z,983.00
2023-05-15T10:42:35.013Z,1007.00
2023-05-15T10:43:35.008Z,1028.00
2023-05-15T10:44:35.083Z,1059.00
2023-05-15T10:45:35.106Z,969.00
2023-05-15T10:46:35.246Z,951.00
2023-05-15T10:47:35.277Z,978.00
2023-05-15T10:48:35.298Z,995.00
2023-05-15T10:49:35.374Z,1013.00
2023-05-15T10:50:35.420Z,977.00
2023-05-15T10:51:35.412Z,1052.00
2023-05-15T10:52:35.484Z,1079.00
2023-05-15T10:53:35.442Z,1061.00
2023-05-15T10:54:35.473Z,1104.00
2023-05-15T10:55:35.443Z,1059.00
2023-05-15T10:56:35.456Z,987.00
2023-05-15T10:57:35.446Z,943.00
2023-05-15T10:58:35.452Z,912.00
2023-05-15T10:59:35.486Z,934.00
2023-05-15T11:00:35.485Z,987.00
2023-05-15T11:01:35.550Z,850.00
2023-05-15T11:02:35.530Z,888.00
2023-05-15T11:03:48.176Z,871.00
2023-05-15T11:04:36.573Z,823.00
2023-05-15T11:05:35.513Z,847.00
2023-05-15T11:06:35.486Z,852.00
2023-05-15T11:07:35.494Z,870.00
2023-05-15T11:08:35.430Z,819.00
2023-05-15T11:09:35.447Z,753.00
2023-05-15T11:10:35.403Z,702.00
2023-05-15T11:11:35.461Z,654.00
2023-05-15T11:12:35.413Z,658.00
2023-05-15T11:13:35.869Z,658.00
2023-05-15T11:14:35.422Z,663.00
2023-05-15T11:15:35.377Z,622.00
2023-05-15T11:16:35.434Z,598.00
2023-05-15T11:17:35.376Z,601.00
2023-05-15T11:18:35.391Z,615.00
2023-05-15T11:19:35.915Z,607.00
2023-05-15T11:20:37.102Z,566.00
2023-05-15T11:21:35.351Z,537.00
2023-05-15T11:22:35.342Z,518.00
2023-05-15T11:23:35.353Z,502.00
2023-05-15T11:24:35.344Z,500.00
2023-05-15T11:25:35.357Z,500.00
2023-05-15T11:26:35.339Z,504.00
2023-05-15T11:27:35.401Z,501.00
2023-05-15T11:28:35.413Z,500.00
2023-05-15T11:29:35.877Z,500.00
2023-05-15T11:30:35.548Z,500.00
2023-05-15T11:31:35.697Z,502.00
2023-05-15T11:32:35.608Z,502.00
2023-05-15T11:33:35.628Z,503.00
2023-05-15T11:34:35.732Z,504.00
2023-05-15T11:35:35.702Z,500.00
2023-05-15T11:36:37.068Z,505.00
2023-05-15T11:37:35.758Z,506.00
2023-05-15T11:38:35.777Z,502.00
2023-05-15T11:39:35.837Z,500.00
2023-05-15T11:40:35.869Z,502.00
2023-05-15T11:41:35.967Z,503.00
2023-05-15T11:42:35.950Z,502.00
2023-05-15T11:43:35.986Z,507.00
2023-05-15T11:44:36.023Z,520.00
2023-05-15T11:45:36.047Z,524.00
2023-05-15T11:46:36.140Z,521.00
2023-05-15T11:47:36.179Z,518.00
2023-05-15T11:48:36.210Z,520.00
2023-05-15T11:49:36.242Z,524.00
2023-05-15T11:50:36.321Z,536.00
2023-05-15T11:51:36.371Z,527.00
2023-05-15T11:52:36.448Z,521.00
2023-05-15T11:53:36.469Z,535.00
2023-05-15T11:54:36.516Z,533.00
2023-05-15T11:55:36.554Z,537.00
2023-05-15T11:56:36.623Z,533.00
2023-05-15T11:57:36.684Z,570.00
2023-05-15T11:58:36.656Z,642.00
2023-05-15T11:59:36.718Z,745.00
2023-05-15T12:00:36.722Z,789.00
2023-05-15T12:01:36.783Z,861.00
2023-05-15T12:02:36.872Z,927.00
2023-05-15T12:03:36.960Z,984.00
2023-05-15T12:04:36.860Z,1048.00
2023-05-15T12:05:37.806Z,1102.00
2023-05-15T12:06:36.898Z,1059.00
2023-05-15T12:07:36.876Z,1052.00
2023-05-15T12:08:36.882Z,1002.00
2023-05-15T12:09:36.871Z,878.00
2023-05-15T12:10:36.870Z,782.00
2023-05-15T12:11:36.845Z,721.00
2023-05-15T12:12:36.857Z,700.00
2023-05-15T12:13:36.844Z,663.00
2023-05-15T12:14:36.831Z,655.00
2023-05-15T12:15:36.826Z,651.00
2023-05-15T12:16:36.860Z,639.00
2023-05-15T12:17:36.856Z,634.00
2023-05-15T12:18:36.859Z,620.00
2023-05-15T12:19:36.888Z,604.00
2023-05-15T12:20:36.815Z,587.00
2023-05-15T12:21:37.852Z,578.00